createdAt,value
2019-03-17T00:01:43.859Z,57.49
2019-03-17T00:04:16.180Z,61.45
2019-03-17T00:06:48.555Z,64.10
2019-03-17T00:09:21.131Z,56.72
2019-03-17T00:11:53.605Z,56.86
2019-03-17T00:14:25.975Z,60.22
2019-03-17T00:16:58.451Z,62.63
2019-03-17T00:19:30.823Z,61.93
2019-03-17T00:22:02.772Z,53.97
2019-03-17T00:24:35.113Z,53.29
2019-03-17T00:27:07.527Z,57.15
2019-03-17T00:29:40.003Z,60.11
2019-03-17T00:32:11.951Z,63.11
2019-03-17T00:34:44.645Z,60.87
2019-03-17T00:37:16.915Z,54.13
2019-03-17T00:39:49.299Z,55.89
2019-03-17T00:42:21.657Z,59.80
2019-03-17T00:44:53.925Z,61.60
2019-03-17T00:47:26.290Z,64.85
2019-03-17T00:49:58.568Z,59.99
2019-03-17T00:52:30.945Z,54.56
2019-03-17T00:55:03.205Z,57.46
2019-03-17T00:57:35.583Z,60.13
2019-03-17T01:00:15.059Z,62.69
2019-03-17T01:02:47.389Z,61.10
2019-03-17T01:05:19.303Z,54.31
2019-03-17T01:07:51.620Z,56.49
2019-03-17T01:10:25.027Z,59.42
2019-03-17T01:12:58.522Z,62.15
2019-03-17T01:15:30.788Z,62.46
2019-03-17T01:18:02.739Z,54.56
2019-03-17T01:20:35.118Z,56.04
2019-03-17T01:23:07.491Z,58.90
2019-03-17T01:25:39.773Z,61.23
2019-03-17T01:28:12.436Z,64.61
2019-03-17T01:30:44.708Z,59.52
2019-03-17T01:33:17.085Z,54.43
2019-03-17T01:35:49.772Z,56.90
2019-03-17T01:38:21.713Z,59.71
2019-03-17T01:40:54.099Z,62.05
2019-03-17T01:43:26.464Z,65.02
2019-03-17T01:45:58.735Z,59.80
2019-03-17T01:48:31.164Z,54.84
2019-03-17T01:51:03.484Z,57.50
2019-03-17T01:53:35.852Z,59.83
2019-03-17T01:56:07.771Z,62.45
2019-03-17T01:58:40.002Z,61.89
2019-03-17T02:01:12.355Z,53.41
2019-03-17T02:03:44.623Z,53.16
2019-03-17T02:06:18.218Z,56.66
2019-03-17T02:08:50.596Z,58.94
2019-03-17T02:11:22.970Z,61.33
2019-03-17T02:13:55.237Z,64.09
2019-03-17T02:16:27.612Z,56.66
2019-03-17T02:18:59.879Z,52.97
2019-03-17T02:21:32.250Z,55.70
2019-03-17T02:24:04.521Z,58.62
2019-03-17T02:26:36.893Z,60.25
2019-03-17T02:29:09.160Z,62.21
2019-03-17T02:31:41.541Z,63.41
2019-03-17T02:34:13.801Z,52.54
2019-03-17T02:36:46.171Z,53.27
2019-03-17T02:39:18.449Z,56.25
2019-03-17T02:41:50.818Z,59.14
2019-03-17T02:44:23.088Z,61.54
2019-03-17T02:46:55.458Z,64.34
2019-03-17T02:49:27.723Z,58.11
2019-03-17T02:52:00.098Z,53.39
2019-03-17T02:54:32.373Z,55.97
2019-03-17T02:57:04.742Z,58.55
2019-03-17T02:59:38.653Z,61.13
2019-03-17T03:02:11.022Z,62.98
2019-03-17T03:04:44.519Z,62.10
2019-03-17T03:07:16.887Z,53.02
2019-03-17T03:09:49.162Z,53.24
2019-03-17T03:12:21.531Z,56.26
2019-03-17T03:14:53.803Z,59.06
2019-03-17T03:17:26.177Z,60.50
2019-03-17T03:19:58.087Z,62.44
2019-03-17T03:22:30.414Z,62.07
2019-03-17T03:25:02.705Z,53.84
2019-03-17T03:27:35.049Z,54.12
2019-03-17T03:30:13.516Z,56.89
2019-03-17T03:32:45.938Z,59.99
2019-03-17T03:35:18.334Z,62.20
2019-03-17T03:37:50.256Z,64.32
2019-03-17T03:40:22.535Z,59.76
2019-03-17T03:42:54.484Z,54.13
2019-03-17T03:45:26.767Z,56.71
2019-03-17T03:47:59.140Z,59.56
2019-03-17T03:50:31.054Z,61.87
2019-03-17T03:53:03.428Z,63.90
2019-03-17T03:55:35.339Z,57.76
2019-03-17T03:58:07.288Z,52.89
2019-03-17T04:00:39.206Z,55.33
2019-03-17T04:03:11.534Z,57.92
2019-03-17T04:05:43.910Z,60.45
2019-03-17T04:08:16.279Z,61.63
2019-03-17T04:10:48.567Z,64.39
2019-03-17T04:13:20.495Z,55.78
2019-03-17T04:15:52.777Z,54.39
2019-03-17T04:18:25.743Z,57.11
2019-03-17T04:20:58.032Z,59.56
2019-03-17T04:23:30.404Z,61.56
2019-03-17T04:26:02.543Z,62.76
2019-03-17T04:28:34.944Z,61.21
2019-03-17T04:31:07.213Z,52.78
2019-03-17T04:33:39.590Z,54.12
2019-03-17T04:36:12.470Z,56.89
2019-03-17T04:38:44.892Z,59.37
2019-03-17T04:41:17.212Z,60.87
2019-03-17T04:43:49.153Z,62.53
2019-03-17T04:46:21.444Z,61.77
2019-03-17T04:48:55.081Z,52.81
2019-03-17T04:51:27.470Z,53.91
2019-03-17T04:53:59.785Z,56.76
2019-03-17T04:56:32.367Z,58.72
2019-03-17T04:59:05.149Z,60.92
2019-03-17T05:01:37.416Z,62.31
2019-03-17T05:04:09.790Z,62.93
2019-03-17T05:06:52.135Z,61.87
2019-03-17T05:09:16.069Z,53.11
2019-03-17T05:11:48.339Z,54.21
2019-03-17T05:14:20.705Z,57.11
2019-03-17T05:16:52.981Z,59.34
2019-03-17T05:19:25.354Z,61.16
2019-03-17T05:21:57.724Z,61.94
2019-03-17T05:24:30.101Z,65.33
2019-03-17T05:27:03.146Z,57.93
2019-03-17T05:29:35.452Z,53.39
2019-03-17T05:32:07.398Z,55.70
2019-03-17T05:34:39.685Z,59.29
2019-03-17T05:37:12.053Z,62.08
2019-03-17T05:39:44.379Z,64.06
2019-03-17T05:42:16.802Z,58.46
2019-03-17T05:44:48.717Z,53.36
2019-03-17T05:47:21.037Z,55.90
2019-03-17T05:49:53.717Z,58.61
2019-03-17T05:52:26.494Z,60.89
2019-03-17T05:54:59.173Z,62.66
2019-03-17T05:57:31.352Z,61.57
2019-03-17T06:00:03.279Z,53.62
2019-03-17T06:02:35.671Z,55.81
2019-03-17T06:05:09.481Z,58.88
2019-03-17T06:07:41.908Z,60.66
2019-03-17T06:10:14.228Z,63.55
2019-03-17T06:12:46.599Z,58.65
2019-03-17T06:15:19.070Z,54.38
2019-03-17T06:17:51.442Z,56.76
2019-03-17T06:20:23.819Z,59.44
2019-03-17T06:22:56.189Z,61.50
2019-03-17T06:25:28.457Z,63.78
2019-03-17T06:28:00.832Z,58.66
2019-03-17T06:30:33.156Z,54.03
2019-03-17T06:33:05.105Z,56.20
2019-03-17T06:35:37.236Z,58.66
2019-03-17T06:38:09.598Z,60.55
2019-03-17T06:40:41.864Z,62.39
2019-03-17T06:43:14.295Z,60.56
2019-03-17T06:45:46.618Z,54.17
2019-03-17T06:48:18.985Z,56.30
2019-03-17T06:50:51.350Z,58.89
2019-03-17T06:53:23.728Z,60.23
2019-03-17T06:55:56.105Z,61.71
2019-03-17T06:58:28.474Z,63.00
2019-03-17T07:01:00.736Z,56.03
2019-03-17T07:03:33.115Z,54.22
2019-03-17T07:06:05.131Z,56.28
2019-03-17T07:08:38.780Z,58.46
2019-03-17T07:11:11.292Z,60.19
2019-03-17T07:13:43.932Z,61.49
2019-03-17T07:16:16.304Z,62.47
2019-03-17T07:18:48.247Z,59.59
2019-03-17T07:21:20.538Z,55.08
2019-03-17T07:23:52.910Z,56.71
2019-03-17T07:26:25.282Z,58.97
2019-03-17T07:28:57.646Z,60.29
2019-03-17T07:31:29.922Z,61.84
2019-03-17T07:34:01.870Z,62.95
2019-03-17T07:36:33.796Z,55.74
2019-03-17T07:39:12.017Z,54.22
2019-03-17T07:41:42.382Z,56.40
2019-03-17T07:44:14.755Z,57.96
2019-03-17T07:46:47.022Z,58.94
2019-03-17T07:49:19.597Z,59.72
2019-03-17T07:51:51.977Z,60.58
2019-03-17T07:54:24.648Z,61.13
2019-03-17T07:56:57.023Z,61.37
2019-03-17T07:59:29.388Z,61.68
2019-03-17T08:02:01.794Z,62.28
2019-03-17T08:04:42.535Z,62.44
2019-03-17T08:07:08.044Z,59.81
2019-03-17T08:09:40.412Z,53.19
2019-03-17T08:12:12.688Z,54.87
2019-03-17T08:14:45.058Z,57.13
2019-03-17T08:17:17.321Z,57.89
2019-03-17T08:19:49.280Z,58.50
2019-03-17T08:22:21.556Z,59.28
2019-03-17T08:24:53.506Z,59.65
2019-03-17T08:27:25.795Z,59.63
2019-03-17T08:29:58.164Z,59.11
2019-03-17T08:32:30.433Z,59.81
2019-03-17T08:35:02.804Z,60.51
2019-03-17T08:37:35.070Z,59.78
2019-03-17T08:40:16.113Z,59.23
2019-03-17T08:42:48.426Z,59.76
2019-03-17T08:45:20.794Z,59.62
2019-03-17T08:47:58.282Z,59.58
2019-03-17T08:50:27.067Z,60.03
2019-03-17T08:52:59.346Z,59.65
2019-03-17T08:55:31.717Z,59.70
2019-03-17T08:58:03.984Z,58.63
2019-03-17T09:00:36.353Z,57.66
2019-03-17T09:03:08.625Z,57.62
2019-03-17T09:05:41.025Z,56.41
2019-03-17T09:08:13.266Z,57.76
2019-03-17T09:10:45.639Z,57.36
2019-03-17T09:13:18.015Z,56.97
2019-03-17T09:15:50.381Z,57.20
2019-03-17T09:18:22.292Z,56.59
2019-03-17T09:20:54.712Z,56.42
2019-03-17T09:23:26.690Z,56.13
2019-03-17T09:25:59.051Z,56.33
2019-03-17T09:28:31.422Z,56.47
2019-03-17T09:31:07.159Z,55.63
2019-03-17T09:33:37.600Z,55.21
2019-03-17T09:36:09.871Z,56.09
2019-03-17T09:38:47.317Z,56.39
2019-03-17T09:41:15.780Z,53.97
2019-03-17T09:43:48.123Z,54.24
2019-03-17T09:46:20.485Z,51.67
2019-03-17T09:48:52.859Z,51.59
2019-03-17T09:51:24.771Z,51.25
2019-03-17T09:53:57.089Z,49.42
2019-03-17T09:56:29.462Z,50.47
2019-03-17T09:59:01.916Z,49.94
2019-03-17T10:01:34.307Z,50.42
2019-03-17T10:04:06.885Z,49.78
2019-03-17T10:06:38.812Z,50.01
2019-03-17T10:09:11.119Z,48.55
2019-03-17T10:11:43.038Z,49.37
2019-03-17T10:14:15.403Z,50.06
2019-03-17T10:16:49.054Z,49.76
2019-03-17T10:19:21.423Z,49.24
2019-03-17T10:21:53.801Z,49.30
2019-03-17T10:24:26.167Z,49.33
2019-03-17T10:26:58.443Z,49.29
2019-03-17T10:29:30.808Z,48.71
2019-03-17T10:32:03.077Z,48.13
2019-03-17T10:34:35.453Z,47.90
2019-03-17T10:37:07.726Z,48.56
2019-03-17T10:39:40.160Z,47.73
2019-03-17T10:42:12.064Z,48.09
2019-03-17T10:44:44.447Z,47.28
2019-03-17T10:47:16.791Z,46.04
2019-03-17T10:49:49.680Z,46.92
2019-03-17T10:52:22.123Z,44.90
2019-03-17T10:54:54.732Z,45.26
2019-03-17T10:57:27.103Z,46.15
2019-03-17T10:59:59.470Z,46.10
2019-03-17T11:02:32.057Z,46.05
2019-03-17T11:05:05.147Z,45.20
2019-03-17T11:07:37.414Z,44.94
2019-03-17T11:10:12.854Z,43.63
2019-03-17T11:12:45.190Z,42.96
2019-03-17T11:15:19.342Z,43.80
2019-03-17T11:17:51.262Z,42.57
2019-03-17T11:20:24.596Z,42.63
2019-03-17T11:22:56.866Z,42.46
2019-03-17T11:25:30.159Z,42.57
2019-03-17T11:28:04.169Z,41.76
2019-03-17T11:30:36.541Z,41.27
2019-03-17T11:33:09.222Z,40.69
2019-03-17T11:35:41.597Z,41.06
2019-03-17T11:38:13.862Z,39.95
2019-03-17T11:40:46.279Z,39.93
2019-03-17T11:43:18.506Z,38.08
2019-03-17T11:45:51.136Z,39.17
2019-03-17T11:48:24.068Z,37.41
2019-03-17T11:50:56.440Z,37.82
2019-03-17T11:53:28.711Z,35.72
2019-03-17T11:56:01.086Z,35.85
2019-03-17T11:58:33.353Z,36.62
2019-03-17T12:01:05.722Z,35.53
2019-03-17T12:03:37.993Z,35.25
2019-03-17T12:06:10.369Z,34.61
2019-03-17T12:08:42.285Z,33.31
2019-03-17T12:11:14.595Z,32.31
2019-03-17T12:13:46.967Z,32.61
2019-03-17T12:16:19.350Z,33.10
2019-03-17T12:18:51.711Z,33.38
2019-03-17T12:21:24.090Z,32.51
2019-03-17T12:23:56.361Z,32.74
2019-03-17T12:26:28.726Z,33.15
2019-03-17T12:29:00.875Z,32.04
2019-03-17T12:31:33.268Z,32.37
2019-03-17T12:34:05.636Z,32.23
2019-03-17T12:36:38.061Z,31.53
2019-03-17T12:39:10.382Z,31.96
2019-03-17T12:41:42.753Z,31.14
2019-03-17T12:44:15.125Z,30.69
2019-03-17T12:46:47.495Z,30.98
2019-03-17T12:49:19.874Z,30.19
2019-03-17T12:51:52.240Z,29.79
2019-03-17T12:54:24.622Z,29.71
2019-03-17T12:56:56.913Z,29.17
2019-03-17T12:59:29.209Z,29.62
2019-03-17T13:02:01.580Z,27.71
2019-03-17T13:04:33.757Z,27.79
2019-03-17T13:07:06.119Z,28.14
2019-03-17T13:09:38.492Z,27.05
2019-03-17T13:12:10.467Z,27.26
2019-03-17T13:14:42.829Z,27.13
2019-03-17T13:17:14.797Z,26.89
2019-03-17T13:19:47.153Z,26.65
2019-03-17T13:22:19.527Z,27.71
2019-03-17T13:24:53.034Z,27.25
2019-03-17T13:27:25.475Z,27.27
2019-03-17T13:29:57.769Z,26.78
2019-03-17T13:32:30.149Z,26.94
2019-03-17T13:35:02.514Z,27.25
2019-03-17T13:37:34.887Z,27.09
2019-03-17T13:40:28.090Z,27.24
2019-03-17T13:42:50.492Z,27.26
2019-03-17T13:45:22.754Z,26.78
2019-03-17T13:47:55.227Z,26.25
2019-03-17T13:50:27.505Z,26.63
2019-03-17T13:53:00.694Z,26.84
2019-03-17T13:55:32.959Z,26.83
2019-03-17T13:58:11.784Z,27.26
2019-03-17T14:00:44.153Z,26.57
2019-03-17T14:03:16.532Z,26.32
2019-03-17T14:05:49.312Z,25.91
2019-03-17T14:08:21.790Z,26.27
2019-03-17T14:10:53.701Z,26.72
2019-03-17T14:13:26.117Z,25.99
2019-03-17T14:15:58.495Z,25.79
2019-03-17T14:18:30.872Z,25.89
2019-03-17T14:21:03.241Z,25.80
2019-03-17T14:23:35.817Z,25.79
2019-03-17T14:26:08.183Z,26.71
2019-03-17T14:28:40.564Z,27.10
2019-03-17T14:31:12.828Z,27.74
2019-03-17T14:33:45.196Z,28.27
2019-03-17T14:36:17.565Z,28.30
2019-03-17T14:38:49.946Z,28.38
2019-03-17T14:41:22.210Z,28.43
2019-03-17T14:43:54.406Z,28.25
2019-03-17T14:46:26.755Z,27.88
2019-03-17T14:48:58.739Z,28.08
2019-03-17T14:51:30.666Z,28.62
2019-03-17T14:54:03.053Z,29.46
2019-03-17T14:56:35.425Z,30.77
2019-03-17T14:59:07.899Z,31.92
2019-03-17T15:01:40.273Z,32.08
2019-03-17T15:04:12.747Z,32.12
2019-03-17T15:06:45.219Z,31.82
2019-03-17T15:09:17.589Z,30.70
2019-03-17T15:11:49.509Z,31.32
2019-03-17T15:14:21.919Z,31.07
2019-03-17T15:16:53.834Z,30.79
2019-03-17T15:19:26.266Z,30.99
2019-03-17T15:21:58.532Z,30.85
2019-03-17T15:24:30.901Z,31.15
2019-03-17T15:27:03.170Z,31.07
2019-03-17T15:29:35.368Z,31.36
2019-03-17T15:32:07.293Z,31.29
2019-03-17T15:34:39.672Z,31.48
2019-03-17T15:37:11.944Z,32.27
2019-03-17T15:39:44.042Z,33.03
2019-03-17T15:42:19.189Z,33.79
2019-03-17T15:44:50.391Z,34.19
2019-03-17T15:47:22.653Z,34.74
2019-03-17T15:49:55.030Z,35.30
2019-03-17T15:52:27.303Z,36.06
2019-03-17T15:54:59.664Z,36.61
2019-03-17T15:57:32.047Z,37.29
2019-03-17T16:00:06.254Z,37.81
2019-03-17T16:02:38.529Z,38.37
2019-03-17T16:05:11.003Z,38.83
2019-03-17T16:07:43.582Z,39.67
2019-03-17T16:10:25.231Z,39.92
2019-03-17T16:12:57.542Z,40.61
2019-03-17T16:15:29.915Z,41.26
2019-03-17T16:18:03.209Z,41.71
2019-03-17T16:20:35.579Z,42.69
2019-03-17T16:23:07.854Z,43.31
2019-03-17T16:25:40.683Z,43.65
2019-03-17T16:28:13.003Z,43.66
2019-03-17T16:30:45.373Z,44.95
2019-03-17T16:33:17.647Z,44.56
2019-03-17T16:35:50.011Z,45.79
2019-03-17T16:38:22.387Z,46.92
2019-03-17T16:40:54.763Z,46.69
2019-03-17T16:43:27.130Z,47.21
2019-03-17T16:45:59.504Z,47.96
2019-03-17T16:48:31.871Z,48.09
2019-03-17T16:51:04.251Z,48.79
2019-03-17T16:53:36.529Z,49.00
2019-03-17T16:56:08.914Z,49.16
2019-03-17T16:58:41.267Z,49.65
2019-03-17T17:01:13.259Z,50.24
2019-03-17T17:03:45.595Z,51.08
2019-03-17T17:06:17.963Z,51.89
2019-03-17T17:08:50.335Z,51.45
2019-03-17T17:11:22.816Z,53.03
2019-03-17T17:13:55.076Z,53.77
2019-03-17T17:16:29.590Z,53.99
2019-03-17T17:19:01.362Z,55.09
2019-03-17T17:21:33.738Z,55.42
2019-03-17T17:24:06.102Z,55.83
2019-03-17T17:26:38.081Z,56.52
2019-03-17T17:29:10.339Z,57.50
2019-03-17T17:31:42.707Z,58.13
2019-03-17T17:34:14.980Z,58.68
2019-03-17T17:36:47.456Z,59.19
2019-03-17T17:39:19.724Z,59.80
2019-03-17T17:41:52.194Z,60.02
2019-03-17T17:44:24.469Z,60.18
2019-03-17T17:46:58.255Z,60.76
2019-03-17T17:49:30.845Z,61.25
2019-03-17T17:52:04.454Z,61.81
2019-03-17T17:54:36.725Z,60.52
2019-03-17T17:57:10.133Z,55.47
2019-03-17T17:59:43.405Z,56.63
2019-03-17T18:02:15.783Z,58.89
2019-03-17T18:04:48.054Z,61.03
2019-03-17T18:07:20.419Z,62.34
2019-03-17T18:09:52.798Z,58.97
2019-03-17T18:12:25.170Z,54.11
2019-03-17T18:14:57.540Z,55.49
2019-03-17T18:17:29.913Z,57.16
2019-03-17T18:20:02.716Z,57.85
2019-03-17T18:22:35.154Z,59.57
2019-03-17T18:25:14.498Z,60.80
2019-03-17T18:27:46.973Z,62.26
2019-03-17T18:30:26.620Z,60.32
2019-03-17T18:32:58.992Z,53.33
2019-03-17T18:35:31.424Z,53.80
2019-03-17T18:38:03.974Z,56.37
2019-03-17T18:40:37.297Z,59.49
2019-03-17T18:43:09.713Z,60.62
2019-03-17T18:45:42.777Z,64.14
2019-03-17T18:48:15.471Z,59.51
2019-03-17T18:50:47.742Z,53.07
2019-03-17T18:53:20.120Z,54.14
2019-03-17T18:55:52.919Z,57.73
2019-03-17T18:58:25.378Z,58.27
2019-03-17T19:00:57.750Z,61.39
2019-03-17T19:03:30.131Z,61.96
2019-03-17T19:06:02.487Z,62.33
2019-03-17T19:08:34.760Z,54.43
2019-03-17T19:11:07.775Z,54.99
2019-03-17T19:13:40.018Z,58.75
2019-03-17T19:16:13.817Z,60.05
2019-03-17T19:18:45.728Z,63.66
2019-03-17T19:21:18.152Z,55.48
2019-03-17T19:23:50.934Z,55.00
2019-03-17T19:26:23.308Z,55.49
2019-03-17T19:28:55.678Z,58.46
2019-03-17T19:31:28.155Z,59.84
2019-03-17T19:34:00.426Z,60.96
2019-03-17T19:36:33.924Z,62.26
2019-03-17T19:39:08.338Z,63.76
2019-03-17T19:41:40.715Z,54.85
2019-03-17T19:44:12.846Z,54.82
2019-03-17T19:46:45.253Z,57.75
2019-03-17T19:49:17.865Z,59.14
2019-03-17T19:51:50.547Z,61.07
2019-03-17T19:54:22.876Z,63.23
2019-03-17T19:56:55.557Z,63.61
2019-03-17T19:59:27.941Z,54.57
2019-03-17T20:02:00.306Z,55.89
2019-03-17T20:04:35.545Z,58.88
2019-03-17T20:07:06.688Z,60.80
2019-03-17T20:09:38.957Z,61.90
2019-03-17T20:12:11.740Z,65.55
2019-03-17T20:14:44.011Z,59.15
2019-03-17T20:17:16.479Z,53.84
2019-03-17T20:19:48.749Z,56.72
2019-03-17T20:22:21.227Z,58.49
2019-03-17T20:24:53.497Z,60.10
2019-03-17T20:27:25.867Z,61.88
2019-03-17T20:29:58.242Z,61.37
2019-03-17T20:32:30.614Z,53.60
2019-03-17T20:35:02.880Z,52.71
2019-03-17T20:37:36.273Z,55.79
2019-03-17T20:40:17.771Z,57.09
2019-03-17T20:42:50.129Z,60.04
2019-03-17T20:45:22.405Z,61.48
2019-03-17T20:47:54.913Z,64.51
2019-03-17T20:50:29.317Z,58.02
2019-03-17T20:53:05.916Z,52.79
2019-03-17T20:55:39.265Z,55.27
2019-03-17T20:58:11.632Z,58.74
2019-03-17T21:00:43.903Z,60.74
2019-03-17T21:03:17.512Z,62.81
2019-03-17T21:05:49.419Z,61.50
2019-03-17T21:08:24.048Z,54.62
2019-03-17T21:10:56.364Z,57.13
2019-03-17T21:13:31.136Z,58.99
2019-03-17T21:16:03.465Z,61.45
2019-03-17T21:18:35.945Z,62.75
2019-03-17T21:21:08.622Z,62.10
2019-03-17T21:23:42.015Z,52.93
2019-03-17T21:26:14.276Z,53.34
2019-03-17T21:28:50.339Z,56.75
2019-03-17T21:31:25.235Z,59.35
2019-03-17T21:33:57.897Z,61.49
2019-03-17T21:36:33.125Z,63.59
2019-03-17T21:39:11.293Z,55.17
2019-03-17T21:41:43.395Z,55.61
2019-03-17T21:44:15.733Z,58.09
2019-03-17T21:46:48.101Z,60.83
2019-03-17T21:49:25.531Z,62.03
2019-03-17T21:52:01.163Z,62.46
2019-03-17T21:54:37.715Z,54.35
2019-03-17T21:57:10.101Z,56.58
2019-03-17T21:59:42.059Z,59.62
2019-03-17T22:02:15.155Z,60.96
2019-03-17T22:04:48.196Z,63.05
2019-03-17T22:07:22.433Z,62.62
2019-03-17T22:09:54.837Z,53.25
2019-03-17T22:12:27.288Z,54.32
2019-03-17T22:15:00.418Z,56.95
2019-03-17T22:17:32.845Z,59.58
2019-03-17T22:20:07.791Z,61.75
2019-03-17T22:22:40.360Z,64.18
2019-03-17T22:25:17.784Z,54.79
2019-03-17T22:27:50.731Z,52.38
2019-03-17T22:30:24.337Z,55.29
2019-03-17T22:32:56.758Z,57.94
2019-03-17T22:35:28.738Z,60.14
2019-03-17T22:38:01.044Z,62.00
2019-03-17T22:40:33.518Z,65.53
2019-03-17T22:43:05.890Z,56.18
2019-03-17T22:45:38.260Z,54.33
2019-03-17T22:48:10.527Z,57.43
2019-03-17T22:50:42.952Z,60.02
2019-03-17T22:53:15.268Z,61.23
2019-03-17T22:55:47.640Z,62.60
2019-03-17T22:58:19.915Z,54.43
2019-03-17T23:00:52.692Z,53.60
2019-03-17T23:03:26.197Z,56.39
2019-03-17T23:05:58.569Z,58.53
2019-03-17T23:08:30.833Z,61.92
2019-03-17T23:11:03.517Z,63.24
2019-03-17T23:13:35.781Z,57.02
2019-03-17T23:16:08.480Z,53.55
2019-03-17T23:18:40.735Z,56.22
2019-03-17T23:21:12.703Z,58.43
2019-03-17T23:23:44.962Z,61.28
2019-03-17T23:26:17.332Z,64.28
2019-03-17T23:28:49.610Z,57.27
2019-03-17T23:31:22.082Z,52.54
2019-03-17T23:33:54.354Z,55.26
2019-03-17T23:36:26.724Z,57.80
2019-03-17T23:38:58.989Z,60.00
2019-03-17T23:41:31.667Z,62.12
2019-03-17T23:44:03.810Z,63.38
2019-03-17T23:46:36.419Z,54.06
2019-03-17T23:49:08.683Z,53.64
2019-03-17T23:51:41.051Z,56.28
2019-03-17T23:54:13.324Z,58.68
2019-03-17T23:56:50.165Z,60.90
2019-03-17T23:59:21.144Z,62.89
